createdAt,value
2018-06-24T00:01:38.832Z,16.40
2018-06-24T00:04:06.946Z,16.30
2018-06-24T00:06:35.031Z,16.30
2018-06-24T00:09:03.180Z,16.40
2018-06-24T00:11:31.345Z,16.30
2018-06-24T00:13:59.537Z,16.30
2018-06-24T00:16:27.568Z,16.20
2018-06-24T00:18:55.748Z,16.30
2018-06-24T00:23:51.751Z,16.30
2018-06-24T00:26:19.855Z,16.20
2018-06-24T00:28:47.984Z,16.10
2018-06-24T00:31:16.108Z,16.20
2018-06-24T00:33:44.584Z,16.20
2018-06-24T00:36:12.708Z,16.20
2018-06-24T00:38:40.805Z,16.10
2018-06-24T00:41:08.988Z,16.10
2018-06-24T00:43:37.099Z,16.10
2018-06-24T00:46:05.231Z,16.10
2018-06-24T00:48:33.343Z,16.10
2018-06-24T00:51:01.680Z,16.10
2018-06-24T00:53:29.802Z,16.00
2018-06-24T00:55:57.896Z,16.20
2018-06-24T00:58:26.004Z,16.10
2018-06-24T01:00:54.115Z,16.10
2018-06-24T01:03:22.227Z,16.00
2018-06-24T01:05:50.359Z,16.00
2018-06-24T01:08:18.490Z,16.10
2018-06-24T01:10:46.648Z,16.00
2018-06-24T01:13:14.797Z,16.00
2018-06-24T01:15:42.950Z,16.00
2018-06-24T01:18:11.102Z,16.00
2018-06-24T01:23:07.165Z,16.00
2018-06-24T01:25:35.318Z,15.90
2018-06-24T01:28:03.441Z,15.90
2018-06-24T01:30:31.591Z,15.90
2018-06-24T01:32:59.745Z,15.90
2018-06-24T01:35:27.886Z,16.00
2018-06-24T01:37:56.013Z,15.90
2018-06-24T01:40:24.167Z,15.90
2018-06-24T01:42:52.299Z,15.90
2018-06-24T01:45:20.512Z,15.90
2018-06-24T01:47:48.653Z,15.80
2018-06-24T01:50:16.756Z,15.90
2018-06-24T01:55:12.817Z,15.90
2018-06-24T01:57:40.931Z,16.00
2018-06-24T02:00:09.087Z,16.00
2018-06-24T02:02:37.216Z,15.90
2018-06-24T02:05:05.384Z,15.80
2018-06-24T02:07:33.755Z,15.90
2018-06-24T02:10:01.831Z,15.90
2018-06-24T02:14:57.919Z,15.90
2018-06-24T02:17:26.115Z,15.90
2018-06-24T02:19:54.244Z,16.00
2018-06-24T02:22:22.356Z,15.90
2018-06-24T02:24:50.457Z,15.90
2018-06-24T02:27:18.676Z,15.90
2018-06-24T02:29:46.920Z,15.90
2018-06-24T02:32:15.028Z,15.90
2018-06-24T02:34:43.242Z,16.00
2018-06-24T02:37:11.365Z,16.10
2018-06-24T02:39:39.511Z,16.00
2018-06-24T02:42:07.645Z,15.90
2018-06-24T02:44:35.903Z,16.00
2018-06-24T02:47:04.048Z,16.00
2018-06-24T02:52:00.096Z,16.00
2018-06-24T02:54:28.228Z,16.20
2018-06-24T02:56:56.347Z,16.00
2018-06-24T02:59:24.444Z,16.10
2018-06-24T03:01:52.555Z,16.00
2018-06-24T03:04:20.683Z,16.00
2018-06-24T03:06:48.865Z,16.00
2018-06-24T03:09:17.006Z,16.00
2018-06-24T03:11:45.144Z,15.90
2018-06-24T03:14:13.473Z,15.80
2018-06-24T03:16:41.666Z,15.90
2018-06-24T03:19:09.790Z,15.80
2018-06-24T03:21:37.917Z,15.80
2018-06-24T03:24:06.029Z,16.00
2018-06-24T03:29:02.185Z,15.90
2018-06-24T03:31:30.300Z,16.00
2018-06-24T03:33:58.413Z,16.00
2018-06-24T03:36:26.533Z,16.10
2018-06-24T03:38:54.844Z,16.00
2018-06-24T03:41:22.959Z,16.00
2018-06-24T03:43:51.057Z,16.00
2018-06-24T03:46:19.203Z,16.00
2018-06-24T03:48:47.339Z,16.20
2018-06-24T03:51:15.520Z,16.00
2018-06-24T03:53:43.651Z,16.00
2018-06-24T03:56:11.774Z,16.00
2018-06-24T03:58:39.899Z,16.10
2018-06-24T04:01:08.052Z,16.10
2018-06-24T04:03:36.180Z,16.20
2018-06-24T04:06:04.292Z,16.20
2018-06-24T04:08:32.420Z,16.20
2018-06-24T04:11:00.576Z,16.10
2018-06-24T04:13:28.687Z,16.30
2018-06-24T04:16:02.727Z,16.10
2018-06-24T04:18:37.252Z,16.20
2018-06-24T04:23:33.308Z,16.20
2018-06-24T04:26:01.436Z,16.40
2018-06-24T04:28:30.040Z,16.20
2018-06-24T04:30:58.194Z,16.10
2018-06-24T04:33:26.320Z,16.10
2018-06-24T04:35:54.475Z,16.20
2018-06-24T04:38:22.593Z,16.30
2018-06-24T04:40:50.937Z,16.40
2018-06-24T04:43:19.048Z,16.40
2018-06-24T04:45:47.163Z,16.50
2018-06-24T04:48:15.416Z,16.50
2018-06-24T04:50:44.368Z,16.60
2018-06-24T04:53:12.461Z,16.50
2018-06-24T04:55:40.565Z,16.60
2018-06-24T04:58:08.684Z,16.70
2018-06-24T05:00:37.328Z,16.60
2018-06-24T05:05:33.500Z,16.60
2018-06-24T05:08:01.621Z,16.70
2018-06-24T05:10:29.746Z,16.70
2018-06-24T05:15:25.860Z,16.60
2018-06-24T05:17:53.987Z,16.80
2018-06-24T05:20:22.136Z,16.70
2018-06-24T05:22:50.264Z,16.70
2018-06-24T05:25:18.400Z,16.80
2018-06-24T05:27:46.520Z,17.00
2018-06-24T05:30:14.754Z,17.00
2018-06-24T05:32:42.855Z,16.90
2018-06-24T05:35:10.684Z,16.90
2018-06-24T05:37:38.787Z,16.90
2018-06-24T05:40:06.944Z,16.80
2018-06-24T05:42:35.223Z,17.00
2018-06-24T05:45:03.373Z,17.00
2018-06-24T05:47:31.550Z,17.00
2018-06-24T05:49:59.653Z,16.80
2018-06-24T05:52:27.805Z,16.80
2018-06-24T05:54:55.968Z,16.90
2018-06-24T05:57:24.105Z,17.10
2018-06-24T05:59:52.236Z,16.90
2018-06-24T06:02:20.330Z,17.10
2018-06-24T06:04:48.474Z,17.40
2018-06-24T06:07:16.580Z,17.40
2018-06-24T06:09:44.744Z,17.40
2018-06-24T06:12:12.878Z,17.70
2018-06-24T06:14:40.991Z,17.90
2018-06-24T06:17:09.127Z,18.10
2018-06-24T06:19:37.268Z,17.90
2018-06-24T06:22:05.627Z,18.00
2018-06-24T06:24:33.809Z,18.10
2018-06-24T06:29:29.843Z,18.10
2018-06-24T06:31:57.949Z,18.10
2018-06-24T06:34:26.062Z,18.10
2018-06-24T06:36:54.200Z,18.30
2018-06-24T06:39:22.285Z,18.20
2018-06-24T06:41:50.391Z,18.40
2018-06-24T06:44:18.531Z,18.30
2018-06-24T06:46:46.653Z,18.50
2018-06-24T06:49:14.807Z,18.50
2018-06-24T06:51:43.091Z,18.60
2018-06-24T06:54:11.219Z,18.60
2018-06-24T06:56:39.401Z,18.70
2018-06-24T06:59:07.549Z,18.70
2018-06-24T07:01:35.663Z,18.40
2018-06-24T07:04:03.887Z,18.50
2018-06-24T07:06:32.089Z,18.30
2018-06-24T07:09:00.227Z,18.20
2018-06-24T07:11:28.359Z,18.10
2018-06-24T07:13:56.472Z,17.90
2018-06-24T07:18:52.472Z,18.00
2018-06-24T07:21:21.073Z,17.90
2018-06-24T07:23:49.171Z,18.20
2018-06-24T07:26:17.300Z,18.30
2018-06-24T07:28:45.398Z,18.20
2018-06-24T07:31:13.547Z,18.40
2018-06-24T07:33:41.733Z,18.30
2018-06-24T07:36:09.817Z,18.20
2018-06-24T07:38:37.989Z,18.20
2018-06-24T07:41:06.275Z,18.40
2018-06-24T07:43:34.420Z,18.40
2018-06-24T07:46:02.532Z,18.30
2018-06-24T07:48:30.636Z,18.40
2018-06-24T07:50:58.749Z,18.30
2018-06-24T07:53:26.953Z,18.50
2018-06-24T07:58:22.993Z,18.20
2018-06-24T08:00:51.104Z,18.40
2018-06-24T08:03:19.276Z,18.60
2018-06-24T08:05:47.420Z,18.80
2018-06-24T08:08:15.738Z,18.60
2018-06-24T08:10:43.853Z,18.70
2018-06-24T08:13:12.008Z,18.90
2018-06-24T08:15:40.118Z,18.80
2018-06-24T08:18:08.228Z,18.70
2018-06-24T08:20:36.692Z,19.10
2018-06-24T08:23:04.827Z,19.60
2018-06-24T08:25:33.220Z,19.70
2018-06-24T08:28:01.331Z,19.80
2018-06-24T08:30:29.483Z,19.90
2018-06-24T08:32:57.863Z,20.10
2018-06-24T08:35:26.204Z,20.10
2018-06-24T08:37:54.565Z,20.10
2018-06-24T08:40:22.699Z,20.10
2018-06-24T08:42:50.825Z,20.10
2018-06-24T08:45:19.020Z,20.10
2018-06-24T08:47:47.183Z,20.30
2018-06-24T08:50:15.280Z,20.30
2018-06-24T08:52:43.412Z,20.50
2018-06-24T08:55:11.521Z,20.80
2018-06-24T08:57:39.727Z,21.10
2018-06-24T09:00:08.254Z,21.20
2018-06-24T09:02:36.532Z,21.30
2018-06-24T09:05:04.664Z,21.30
2018-06-24T09:07:32.799Z,21.30
2018-06-24T09:10:00.919Z,21.30
2018-06-24T09:12:29.019Z,21.30
2018-06-24T09:14:57.136Z,21.10
2018-06-24T09:19:53.116Z,20.80
2018-06-24T09:22:21.208Z,20.80
2018-06-24T09:24:49.423Z,20.60
2018-06-24T09:27:17.557Z,20.70
2018-06-24T09:29:45.656Z,20.60
2018-06-24T09:32:13.804Z,20.60
2018-06-24T09:34:41.949Z,20.60
2018-06-24T09:37:10.073Z,20.60
2018-06-24T09:44:34.089Z,20.80
2018-06-24T09:49:30.111Z,21.50
2018-06-24T09:51:58.195Z,21.80
2018-06-24T09:54:26.344Z,22.10
2018-06-24T09:56:54.480Z,22.00
2018-06-24T09:59:22.836Z,22.00
2018-06-24T10:01:50.736Z,21.80
2018-06-24T10:04:19.050Z,21.60
2018-06-24T10:06:47.168Z,21.40
2018-06-24T10:09:15.446Z,21.30
2018-06-24T10:11:43.632Z,21.10
2018-06-24T10:14:11.803Z,21.20
2018-06-24T10:16:39.957Z,21.40
2018-06-24T10:19:08.102Z,21.60
2018-06-24T10:24:05.017Z,21.70
2018-06-24T10:26:33.111Z,21.80
2018-06-24T10:29:01.247Z,22.10
2018-06-24T10:31:30.745Z,22.30
2018-06-24T10:34:00.218Z,22.30
2018-06-24T10:36:28.514Z,22.20
2018-06-24T10:38:56.619Z,22.20
2018-06-24T10:41:24.727Z,22.10
2018-06-24T10:43:52.853Z,22.10
2018-06-24T10:46:21.033Z,22.20
2018-06-24T10:48:49.159Z,21.90
2018-06-24T10:51:17.312Z,21.70
2018-06-24T10:53:45.442Z,21.70
2018-06-24T10:56:13.753Z,21.60
2018-06-24T10:58:41.877Z,21.70
2018-06-24T11:01:09.968Z,21.70
2018-06-24T11:03:38.108Z,21.90
2018-06-24T11:06:06.200Z,22.10
2018-06-24T11:08:34.313Z,22.30
2018-06-24T11:11:02.444Z,22.50
2018-06-24T11:13:30.581Z,22.50
2018-06-24T11:15:58.690Z,22.70
2018-06-24T11:18:26.807Z,22.70
2018-06-24T11:20:54.896Z,22.70
2018-06-24T11:23:23.072Z,22.80
2018-06-24T11:25:51.173Z,22.70
2018-06-24T11:28:19.281Z,22.70
2018-06-24T11:30:47.385Z,22.70
2018-06-24T11:33:15.476Z,22.60
2018-06-24T11:35:43.595Z,22.70
2018-06-24T11:38:11.732Z,22.70
2018-06-24T11:40:39.819Z,22.80
2018-06-24T11:43:07.931Z,22.80
2018-06-24T11:45:36.051Z,22.50
2018-06-24T11:48:04.152Z,22.30
2018-06-24T11:50:32.444Z,21.90
2018-06-24T11:53:00.620Z,21.80
2018-06-24T11:55:28.828Z,21.80
2018-06-24T11:57:56.963Z,21.90
2018-06-24T12:00:25.227Z,22.00
2018-06-24T12:02:53.456Z,22.10
2018-06-24T12:05:21.680Z,22.40
2018-06-24T12:07:49.768Z,22.20
2018-06-24T12:10:17.959Z,22.00
2018-06-24T12:12:46.099Z,21.90
2018-06-24T12:15:14.247Z,22.00
2018-06-24T12:17:42.360Z,22.50
2018-06-24T12:20:10.460Z,22.60
2018-06-24T12:22:38.575Z,22.60
2018-06-24T12:25:06.707Z,22.60
2018-06-24T12:27:34.967Z,22.60
2018-06-24T12:30:03.142Z,22.50
2018-06-24T12:32:31.394Z,22.40
2018-06-24T12:34:59.487Z,22.50
2018-06-24T12:37:27.708Z,22.60
2018-06-24T12:39:55.800Z,22.60
2018-06-24T12:42:23.933Z,22.60
2018-06-24T12:44:52.043Z,22.90
2018-06-24T12:47:20.152Z,22.90
2018-06-24T12:49:48.305Z,22.90
2018-06-24T12:52:16.399Z,23.00
2018-06-24T12:54:44.532Z,22.80
2018-06-24T12:57:12.636Z,22.60
2018-06-24T12:59:41.185Z,22.80
2018-06-24T13:02:08.915Z,23.50
2018-06-24T13:04:37.025Z,23.90
2018-06-24T13:07:05.274Z,24.10
2018-06-24T13:09:33.364Z,23.80
2018-06-24T13:12:01.482Z,23.30
2018-06-24T13:14:29.621Z,22.90
2018-06-24T13:16:57.736Z,22.50
2018-06-24T13:19:25.856Z,22.30
2018-06-24T13:21:53.969Z,22.20
2018-06-24T13:24:22.048Z,22.10
2018-06-24T13:26:50.204Z,22.10
2018-06-24T13:29:18.295Z,22.40
2018-06-24T13:31:46.480Z,22.40
2018-06-24T13:34:14.633Z,22.20
2018-06-24T13:36:42.754Z,22.10
2018-06-24T13:39:11.519Z,22.10
2018-06-24T13:41:39.708Z,22.10
2018-06-24T13:44:08.616Z,22.10
2018-06-24T13:46:36.959Z,22.10
2018-06-24T13:49:05.103Z,22.00
2018-06-24T13:51:33.229Z,22.00
2018-06-24T13:54:01.350Z,22.00
2018-06-24T13:56:29.457Z,22.10
2018-06-24T13:58:57.734Z,22.00
2018-06-24T14:01:25.868Z,21.90
2018-06-24T14:03:53.983Z,22.10
2018-06-24T14:06:22.116Z,22.40
2018-06-24T14:08:50.241Z,22.40
2018-06-24T14:11:18.370Z,22.30
2018-06-24T14:13:46.485Z,22.30
2018-06-24T14:16:14.780Z,22.20
2018-06-24T14:18:43.115Z,22.20
2018-06-24T14:21:11.249Z,22.10
2018-06-24T14:23:39.409Z,22.00
2018-06-24T14:26:07.531Z,21.90
2018-06-24T14:28:35.631Z,21.90
2018-06-24T14:31:03.758Z,22.10
2018-06-24T14:33:31.875Z,22.20
2018-06-24T14:36:00.053Z,22.30
2018-06-24T14:38:28.179Z,22.40
2018-06-24T14:40:56.320Z,22.60
2018-06-24T14:43:24.429Z,22.60
2018-06-24T14:45:52.544Z,22.40
2018-06-24T14:48:20.780Z,22.30
2018-06-24T14:50:48.913Z,22.10
2018-06-24T14:53:17.010Z,21.90
2018-06-24T14:55:45.166Z,21.90
2018-06-24T14:58:13.301Z,21.80
2018-06-24T15:00:41.449Z,21.80
2018-06-24T15:03:09.556Z,21.90
2018-06-24T15:05:37.658Z,21.90
2018-06-24T15:08:05.792Z,22.00
2018-06-24T15:10:33.887Z,22.20
2018-06-24T15:13:02.021Z,22.50
2018-06-24T15:15:30.139Z,22.70
2018-06-24T15:17:58.260Z,22.60
2018-06-24T15:20:28.554Z,22.50
2018-06-24T15:22:57.211Z,22.30
2018-06-24T15:25:25.497Z,22.20
2018-06-24T15:27:53.824Z,22.20
2018-06-24T15:30:21.960Z,22.20
2018-06-24T15:32:50.116Z,22.20
2018-06-24T15:35:18.240Z,22.20
2018-06-24T15:37:46.358Z,22.10
2018-06-24T15:40:14.435Z,22.10
2018-06-24T15:42:42.548Z,22.00
2018-06-24T15:45:10.745Z,21.90
2018-06-24T15:47:38.930Z,21.80
2018-06-24T15:50:07.052Z,21.80
2018-06-24T15:52:35.213Z,21.80
2018-06-24T15:55:03.336Z,21.80
2018-06-24T15:57:38.213Z,21.80
2018-06-24T16:00:06.388Z,21.80
2018-06-24T16:02:34.512Z,21.90
2018-06-24T16:05:03.550Z,21.90
2018-06-24T16:07:32.921Z,21.80
2018-06-24T16:10:01.071Z,21.90
2018-06-24T16:12:29.411Z,21.80
2018-06-24T16:14:57.517Z,21.80
2018-06-24T16:17:25.624Z,21.80
2018-06-24T16:19:53.743Z,21.80
2018-06-24T16:22:21.976Z,21.70
2018-06-24T16:24:50.075Z,21.70
2018-06-24T16:27:18.294Z,21.80
2018-06-24T16:29:46.420Z,21.80
2018-06-24T16:32:14.602Z,21.80
2018-06-24T16:37:10.609Z,21.70
2018-06-24T16:39:38.773Z,21.80
2018-06-24T16:42:06.872Z,21.70
2018-06-24T16:44:35.017Z,21.70
2018-06-24T16:47:03.131Z,21.60
2018-06-24T16:49:31.242Z,21.60
2018-06-24T16:51:59.365Z,21.50
2018-06-24T16:54:27.551Z,21.50
2018-06-24T16:56:55.674Z,21.40
2018-06-24T16:59:23.831Z,21.40
2018-06-24T17:01:51.960Z,21.40
2018-06-24T17:04:20.085Z,21.40
2018-06-24T17:06:48.192Z,21.40
2018-06-24T17:09:16.352Z,21.50
2018-06-24T17:11:44.484Z,21.50
2018-06-24T17:14:12.595Z,21.40
2018-06-24T17:16:40.776Z,21.40
2018-06-24T17:19:08.884Z,21.30
2018-06-24T17:24:05.185Z,21.30
2018-06-24T17:26:33.294Z,21.20
2018-06-24T17:29:01.456Z,21.30
2018-06-24T17:31:29.596Z,21.30
2018-06-24T17:33:57.752Z,21.30
2018-06-24T17:36:25.895Z,21.30
2018-06-24T17:38:54.010Z,21.30
2018-06-24T17:41:22.459Z,21.30
2018-06-24T17:43:50.576Z,21.40
2018-06-24T17:46:18.671Z,21.40
2018-06-24T17:48:46.765Z,21.40
2018-06-24T17:51:14.872Z,21.50
2018-06-24T17:53:42.996Z,21.60
2018-06-24T17:56:11.109Z,21.50
2018-06-24T17:58:39.248Z,21.50
2018-06-24T18:01:07.761Z,21.40
2018-06-24T18:06:03.767Z,21.30
2018-06-24T18:08:32.649Z,21.20
2018-06-24T18:11:00.800Z,21.20
2018-06-24T18:13:29.016Z,21.20
2018-06-24T18:15:57.108Z,21.20
2018-06-24T18:18:25.239Z,21.20
2018-06-24T18:20:53.328Z,21.20
2018-06-24T18:23:21.619Z,21.20
2018-06-24T18:25:49.708Z,21.10
2018-06-24T18:28:17.829Z,21.10
2018-06-24T18:30:46.004Z,21.10
2018-06-24T18:33:14.213Z,21.10
2018-06-24T18:35:42.231Z,21.00
2018-06-24T18:38:10.336Z,21.00
2018-06-24T18:40:38.441Z,21.00
2018-06-24T18:43:06.592Z,21.00
2018-06-24T18:45:34.740Z,21.00
2018-06-24T18:48:02.844Z,21.00
2018-06-24T18:50:31.113Z,20.90
2018-06-24T18:52:59.204Z,20.90
2018-06-24T18:55:27.308Z,20.90
2018-06-24T18:57:55.440Z,20.90
2018-06-24T19:02:51.664Z,20.80
2018-06-24T19:05:19.660Z,20.80
2018-06-24T19:07:47.757Z,20.80
2018-06-24T19:10:15.975Z,20.80
2018-06-24T19:12:44.121Z,20.80
2018-06-24T19:15:12.256Z,20.80
2018-06-24T19:20:08.284Z,20.70
2018-06-24T19:22:36.387Z,20.70
2018-06-24T19:25:04.529Z,20.70
2018-06-24T19:27:32.656Z,20.60
2018-06-24T19:30:00.813Z,20.60
2018-06-24T19:32:28.947Z,20.60
2018-06-24T19:34:57.151Z,20.60
2018-06-24T19:37:25.320Z,20.60
2018-06-24T19:39:53.809Z,20.50
2018-06-24T19:42:22.323Z,20.50
2018-06-24T19:44:50.687Z,20.50
2018-06-24T19:47:19.033Z,20.50
2018-06-24T19:49:51.195Z,20.50
2018-06-24T19:52:19.264Z,20.50
2018-06-24T19:54:47.388Z,20.40
2018-06-24T19:57:15.472Z,20.40
2018-06-24T19:59:43.586Z,20.40
2018-06-24T20:04:39.618Z,20.40
2018-06-24T20:09:35.964Z,20.40
2018-06-24T20:12:04.108Z,20.40
2018-06-24T20:14:32.216Z,20.40
2018-06-24T20:17:00.356Z,20.30
2018-06-24T20:19:28.464Z,20.30
2018-06-24T20:21:56.569Z,20.20
2018-06-24T20:24:24.670Z,20.30
2018-06-24T20:26:53.175Z,20.20
2018-06-24T20:29:21.331Z,20.20
2018-06-24T20:34:17.372Z,20.10
2018-06-24T20:36:45.472Z,20.20
2018-06-24T20:39:13.555Z,20.10
2018-06-24T20:41:41.768Z,20.20
2018-06-24T20:44:09.852Z,20.10
2018-06-24T20:46:37.966Z,20.10
2018-06-24T20:49:06.252Z,20.10
2018-06-24T20:51:34.488Z,20.10
2018-06-24T20:54:02.592Z,20.10
2018-06-24T20:56:30.680Z,20.10
2018-06-24T21:01:26.922Z,20.10
2018-06-24T21:03:55.018Z,20.00
2018-06-24T21:06:23.194Z,20.00
2018-06-24T21:08:51.347Z,20.00
2018-06-24T21:11:19.656Z,19.90
2018-06-24T21:13:47.756Z,20.00
2018-06-24T21:16:15.875Z,20.00
2018-06-24T21:21:11.924Z,20.00
2018-06-24T21:23:40.025Z,20.00
2018-06-24T21:26:08.130Z,20.00
2018-06-24T21:28:36.265Z,19.90
2018-06-24T21:31:04.367Z,19.90
2018-06-24T21:33:32.468Z,19.90
2018-06-24T21:36:00.604Z,19.90
2018-06-24T21:38:28.736Z,19.90
2018-06-24T21:40:56.855Z,19.90
2018-06-24T21:43:25.024Z,19.90
2018-06-24T21:45:53.079Z,19.90
2018-06-24T21:48:21.200Z,19.90
2018-06-24T21:50:49.352Z,19.80
2018-06-24T21:53:17.502Z,19.80
2018-06-24T21:55:45.630Z,19.90
2018-06-24T21:58:13.748Z,19.80
2018-06-24T22:00:41.868Z,19.90
2018-06-24T22:03:10.001Z,19.80
2018-06-24T22:05:38.111Z,19.80
2018-06-24T22:08:06.312Z,19.80
2018-06-24T22:10:34.447Z,19.70
2018-06-24T22:13:02.573Z,19.70
2018-06-24T22:15:30.705Z,19.80
2018-06-24T22:17:58.800Z,19.80
2018-06-24T22:20:26.951Z,19.70
2018-06-24T22:22:55.171Z,19.80
2018-06-24T22:25:23.372Z,19.70
2018-06-24T22:27:51.492Z,19.80
2018-06-24T22:30:19.621Z,19.80
2018-06-24T22:32:47.729Z,19.70
2018-06-24T22:35:15.840Z,19.70
2018-06-24T22:37:44.017Z,19.70
2018-06-24T22:40:12.134Z,19.70
2018-06-24T22:42:46.707Z,19.70
2018-06-24T22:45:14.823Z,19.70
2018-06-24T22:47:42.983Z,19.70
2018-06-24T22:50:11.128Z,19.70
2018-06-24T22:52:39.256Z,19.60
2018-06-24T22:55:07.431Z,19.60
2018-06-24T22:57:35.671Z,19.60
2018-06-24T23:00:21.629Z,19.60
2018-06-24T23:02:49.762Z,19.60
2018-06-24T23:05:17.856Z,19.60
2018-06-24T23:07:45.973Z,19.60
2018-06-24T23:10:14.502Z,19.60
2018-06-24T23:12:42.826Z,19.60
2018-06-24T23:15:11.540Z,19.50
2018-06-24T23:17:39.956Z,19.50
2018-06-24T23:20:08.948Z,19.60
2018-06-24T23:25:05.674Z,19.60
2018-06-24T23:27:33.814Z,19.50
2018-06-24T23:30:01.927Z,19.50
2018-06-24T23:32:30.061Z,19.60
2018-06-24T23:34:58.164Z,19.50
2018-06-24T23:37:29.138Z,19.50
2018-06-24T23:39:57.260Z,19.40
2018-06-24T23:42:25.460Z,19.50
2018-06-24T23:44:53.549Z,19.50
2018-06-24T23:47:21.669Z,19.50
2018-06-24T23:49:49.751Z,19.60
2018-06-24T23:52:17.850Z,19.50
2018-06-24T23:54:46.099Z,19.50
2018-06-24T23:57:14.194Z,19.50
2018-06-24T23:59:42.305Z,19.50
